sensor_id;sensor_type;location;lat;lon;timestamp;pressure;altitude;pressure_sealevel;temperature;humidity
71642;BME280;60657;50.122;14.468;2022-08-27T00:02:59;97862.35683914537;;;20.754177157244214;87.33943694209201
71642;BME280;60657;50.122;14.468;2022-08-27T00:06:06;97864.28734615243;;;20.727473868925003;87.39475089646754
71642;BME280;60657;50.122;14.468;2022-08-27T00:09:12;97849.10115010919;;;20.62066071564813;87.17730983443961
71642;BME280;60657;50.122;14.468;2022-08-27T00:12:19;97855.41895012012;;;20.60196841382468;87.40810254062714
71642;BME280;60657;50.122;14.468;2022-08-27T00:15:27;97851.39430284708;;;20.599298084992753;87.49584191653315
71642;BME280;60657;50.122;14.468;2022-08-27T00:18:34;97841.27216974784;;;20.62066071564813;87.28412298771649
71642;BME280;60657;50.122;14.468;2022-08-27T00:21:42;97846.16211729076;;;20.48180361638819;87.5912108033875
71642;BME280;60657;50.122;14.468;2022-08-27T00:24:49;97849.29644589016;;;20.53521019302663;87.57976653696498
71642;BME280;60657;50.122;14.468;2022-08-27T00:27:56;97855.99579603458;;;20.529869535362778;87.68657969024186
71642;BME280;60657;50.122;14.468;2022-08-27T00:31:03;97851.07889612205;;;20.51117723353933;87.55306324864576
71642;BME280;60657;50.122;14.468;2022-08-27T00:34:09;97863.68967089949;;;20.334935530632492;87.80674448767834
71642;BME280;60657;50.122;14.468;2022-08-27T00:37:16;97855.77346850044;;;20.268177309834442;88.0051117723354
71642;BME280;60657;50.122;14.468;2022-08-27T00:40:24;97851.53510151568;;;20.270847638666368;88.27214465552758
71642;BME280;60657;50.122;14.468;2022-08-27T00:43:43;97857.69197797825;;;20.206759746700243;87.65224689097428
71642;BME280;60657;50.122;14.468;2022-08-27T00:46:53;97852.369462637;;;20.04654001678493;87.86968795300221
71642;BME280;60657;50.122;14.468;2022-08-27T00:50:06;97851.13417690521;;;20.134660868238342;88.05088883802549
71642;BME280;60657;50.122;14.468;2022-08-27T00:53:19;97861.11006522804;;;20.153353170061806;87.99557488364995
71642;BME280;60657;50.122;14.468;2022-08-27T00:56:31;97867.66835359055;;;20.204089417868317;88.04135194934005
71642;BME280;60657;50.122;14.468;2022-08-27T00:59:43;97861.3872044098;;;20.078583962767993;87.81055924315251
71642;BME280;60657;50.122;14.468;2022-08-27T01:02:50;97855.85529677989;;;20.038529030289155;87.5187304493782
71642;BME280;60657;50.122;14.468;2022-08-27T01:05:57;97859.33669161724;;;19.89433127336538;88.0489814602884
71642;BME280;60657;50.122;14.468;2022-08-27T01:09:09;97864.46527250337;;;20.043869687953006;88.45334554055086
71642;BME280;60657;50.122;14.468;2022-08-27T01:12:21;97869.24785714375;;;20.006485084306092;87.9898527504387
71642;BME280;60657;50.122;14.468;2022-08-27T01:15:31;97867.19511305487;;;20.142671854734118;87.53589684901198
71642;BME280;60657;50.122;14.468;2022-08-27T01:18:38;97869.179239922;;;20.038529030289155;87.61409933623254
71642;BME280;60657;50.122;14.468;2022-08-27T01:21:46;97868.9056931163;;;19.99046311131457;88.10238803692684
71642;BME280;60657;50.122;14.468;2022-08-27T01:25:03;97864.18908509656;;;19.94773785000382;88.30266269932098
71642;BME280;60657;50.122;14.468;2022-08-27T01:28:14;97869.5806058264;;;19.88899061570153;88.39612420843824
71642;BME280;60657;50.122;14.468;2022-08-27T01:31:22;97872.15095932058;;;19.696726939803156;88.50865949492638
71642;BME280;60657;50.122;14.468;2022-08-27T01:34:29;97879.40119881812;;;19.848935683222706;88.53154802777142
71642;BME280;60657;50.122;14.468;2022-08-27T01:37:35;97882.54976664716;;;19.800869764248105;88.52773327229724
71642;BME280;60657;50.122;14.468;2022-08-27T01:40:43;97889.39800596163;;;19.899671931029218;88.26070038910505
71642;BME280;60657;50.122;14.468;2022-08-27T01:43:50;97892.67877718384;;;19.918364232852667;88.22827496757458
71642;BME280;60657;50.122;14.468;2022-08-27T01:46:57;97894.3645348131;;;19.774166475928894;88.38086518654154
71642;BME280;60657;50.122;14.468;2022-08-27T01:50:06;97892.1264287825;;;19.918364232852667;88.49530785076676
71642;BME280;60657;50.122;14.468;2022-08-27T01:53:16;97888.57782162882;;;19.915693904020756;88.14244296940566
71642;BME280;60657;50.122;14.468;2022-08-27T01:56:25;97889.4425867849;;;19.71007858396277;88.75089646753644
71642;BME280;60657;50.122;14.468;2022-08-27T01:59:32;97876.48936065513;;;19.97444113832303;88.32936598764019
71642;BME280;60657;50.122;14.468;2022-08-27T02:02:39;97877.02859424005;;;19.87029831387808;88.61356527046617
71642;BME280;60657;50.122;14.468;2022-08-27T02:05:46;97871.16135123897;;;20.033188372625318;88.15770199130236
71642;BME280;60657;50.122;14.468;2022-08-27T02:08:54;97868.35670718152;;;19.915693904020756;88.24734874494546
71642;BME280;60657;50.122;14.468;2022-08-27T02:12:00;97870.66819970665;;;19.835584039063093;88.42664225223163
71642;BME280;60657;50.122;14.468;2022-08-27T02:15:08;97861.86409966921;;;19.883649958037694;88.0489814602884
71642;BME280;60657;50.122;14.468;2022-08-27T02:18:15;97864.80582141124;;;19.95574883649958;88.23590447852293
71642;BME280;60657;50.122;14.468;2022-08-27T02:21:22;97862.89371715396;;;20.01716639963378;88.30457007705806
71642;BME280;60657;50.122;14.468;2022-08-27T02:24:29;97862.82544918024;;;20.006485084306092;88.22064545662623
71642;BME280;60657;50.122;14.468;2022-08-27T02:27:36;97856.26629129077;;;19.985122453650717;88.32555123216602
71642;BME280;60657;50.122;14.468;2022-08-27T02:30:43;97856.74385110437;;;20.01716639963378;88.13481345845732
71642;BME280;60657;50.122;14.468;2022-08-27T02:33:50;97850.11663845296;;;20.01716639963378;87.84489204242008
71642;BME280;60657;50.122;14.468;2022-08-27T02:36:56;97849.63915551292;;;19.977111467154955;88.09857328145266
71642;BME280;60657;50.122;14.468;2022-08-27T02:40:04;97852.09870256751;;;19.961089494163417;88.13099870298313
71642;BME280;60657;50.122;14.468;2022-08-27T02:43:12;97862.7514698831;;;19.86228732738232;88.19775692378118
71642;BME280;60657;50.122;14.468;2022-08-27T02:46:19;97865.12686651255;;;19.65133134966048;88.37132829785611
71642;BME280;60657;50.122;14.468;2022-08-27T02:49:25;97872.4789319674;;;19.52315556572823;88.92446784161135
71642;BME280;60657;50.122;14.468;2022-08-27T02:52:32;97862.04491199208;;;19.635309376668957;88.63454642557411
71642;BME280;60657;50.122;14.468;2022-08-27T02:55:39;97862.17683841269;;;19.584573128862445;88.88059815365835
71642;BME280;60657;50.122;14.468;2022-08-27T02:58:46;97852.75897200746;;;19.613946746013582;89.12664988174258
71642;BME280;60657;50.122;14.468;2022-08-27T03:01:52;97856.72650919463;;;19.68604562447547;88.62691691462577
71642;BME280;60657;50.122;14.468;2022-08-27T03:04:59;97856.52652898783;;;19.758144502937355;88.43617914091706
71642;BME280;60657;50.122;14.468;2022-08-27T03:08:06;97856.7417237539;;;19.840924696726944;88.4762340733959
71642;BME280;60657;50.122;14.468;2022-08-27T03:11:13;97859.73983795592;;;19.798199435416194;88.27405203326467
71642;BME280;60657;50.122;14.468;2022-08-27T03:14:22;97854.83076690581;;;19.915693904020756;88.2854962996872
71642;BME280;60657;50.122;14.468;2022-08-27T03:17:28;97859.6822085046;;;19.88899061570153;87.91355764095522
71642;BME280;60657;50.122;14.468;2022-08-27T03:20:36;97858.86229513172;;;19.902342259861143;88.11383230334935
71642;BME280;60657;50.122;14.468;2022-08-27T03:23:44;97860.57018421972;;;19.97444113832303;88.30457007705806
71642;BME280;60657;50.122;14.468;2022-08-27T03:26:51;97862.14196894232;;;19.97978179598688;87.9879453727016
71642;BME280;60657;50.122;14.468;2022-08-27T03:30:00;97854.42150116229;;;19.942397192339968;88.01274128328375
71642;BME280;60657;50.122;14.468;2022-08-27T03:33:07;97858.65764370414;;;19.99046311131457;88.00892652780956
71642;BME280;60657;50.122;14.468;2022-08-27T03:36:13;97857.01788810627;;;19.958419165331506;87.91927977416647
71642;BME280;60657;50.122;14.468;2022-08-27T03:39:20;97859.75025729799;;;19.918364232852667;87.52445258258946
71642;BME280;60657;50.122;14.468;2022-08-27T03:42:27;97846.63188733612;;;19.88097962920577;88.27214465552758
71642;BME280;60657;50.122;14.468;2022-08-27T03:45:33;97852.0243067979;;;19.86228732738232;88.34081025406272
71642;BME280;60657;50.122;14.468;2022-08-27T03:48:40;97850.66334770712;;;19.891660944533456;88.05661097123675
71642;BME280;60657;50.122;14.468;2022-08-27T03:51:47;97859.0661432975;;;19.939726863508042;88.08140688181888
71642;BME280;60657;50.122;14.468;2022-08-27T03:54:57;97857.97426742545;;;19.929045548180355;88.26070038910505
71642;BME280;60657;50.122;14.468;2022-08-27T03:58:04;97856.26629129077;;;19.969100480659193;87.73426413366903
71642;BME280;60657;50.122;14.468;2022-08-27T04:01:10;97851.89349175888;;;19.982452124818792;88.14435034714275
71642;BME280;60657;50.122;14.468;2022-08-27T04:04:17;97869.9967540755;;;19.899671931029218;88.47814145113298
71642;BME280;60657;50.122;14.468;2022-08-27T04:07:24;97873.55294293274;;;20.04119935912108;87.78767071030747
71642;BME280;60657;50.122;14.468;2022-08-27T04:10:31;97881.82114912702;;;20.086594949263755;87.92118715190357
71642;BME280;60657;50.122;14.468;2022-08-27T04:13:38;97876.55852021673;;;20.070572976272217;87.6350804913405
71642;BME280;60657;50.122;14.468;2022-08-27T04:16:45;97879.97569809666;;;20.091935606927592;87.69611657892729
71642;BME280;60657;50.122;14.468;2022-08-27T04:19:52;97878.81374540071;;;20.01716639963378;87.88876173037308
71642;BME280;60657;50.122;14.468;2022-08-27T04:22:59;97881.61564312401;;;20.067902647440306;87.30319676508736
71642;BME280;60657;50.122;14.468;2022-08-27T04:26:06;97874.23599699058;;;20.091935606927592;87.58167391470207
71642;BME280;60657;50.122;14.468;2022-08-27T04:29:14;97872.32130241385;;;20.070572976272217;87.16968032349126
71642;BME280;60657;50.122;14.468;2022-08-27T04:32:21;97876.01284547184;;;19.995803768978405;87.73426413366903
71642;BME280;60657;50.122;14.468;2022-08-27T04:35:28;97883.66593208481;;;20.011825741969943;87.57022964827955
71642;BME280;60657;50.122;14.468;2022-08-27T04:38:37;97873.41605321458;;;20.033188372625318;87.98222323949035
71642;BME280;60657;50.122;14.468;2022-08-27T04:41:44;97871.63896959349;;;20.094605935759517;87.7666895551995
71642;BME280;60657;50.122;14.468;2022-08-27T04:44:53;97868.15297981071;;;20.05722133211262;87.9726863508049
71642;BME280;60657;50.122;14.468;2022-08-27T04:48:00;97874.91865648767;;;20.081254291599905;87.55687800411994
71642;BME280;60657;50.122;14.468;2022-08-27T04:51:07;97868.97285239171;;;20.121309224078743;87.33371480888076
71642;BME280;60657;50.122;14.468;2022-08-27T04:54:14;97861.3872044098;;;20.094605935759517;87.68467231250477
71642;BME280;60657;50.122;14.468;2022-08-27T04:57:21;97863.30262919159;;;20.04654001678493;87.55497062638285
71642;BME280;60657;50.122;14.468;2022-08-27T05:00:28;97860.02321308988;;;20.027847714961467;88.01846341649501
71642;BME280;60657;50.122;14.468;2022-08-27T05:03:35;97866.44430085963;;;20.073243305104143;87.94789044022278
71642;BME280;60657;50.122;14.468;2022-08-27T05:06:42;97866.71954068379;;;20.070572976272217;87.83344777599756
71642;BME280;60657;50.122;14.468;2022-08-27T05:09:48;97878.74573058191;;;19.99313344014648;88.10048065918974
71642;BME280;60657;50.122;14.468;2022-08-27T05:12:55;97879.49764143593;;;19.995803768978405;88.48767833981842
71642;BME280;60657;50.122;14.468;2022-08-27T05:16:03;97878.40431717654;;;20.06523231860838;88.05470359349965
71642;BME280;60657;50.122;14.468;2022-08-27T05:19:13;97874.84987868009;;;20.134660868238342;87.71900511177233
71642;BME280;60657;50.122;14.468;2022-08-27T05:22:20;97866.58209939802;;;20.086594949263755;87.92309452964065
71642;BME280;60657;50.122;14.468;2022-08-27T05:25:27;97868.49646158217;;;20.062561989776455;88.2111085679408
71642;BME280;60657;50.122;14.468;2022-08-27T05:28:33;97874.64300927489;;;20.17738612954909;87.70183871213855
71642;BME280;60657;50.122;14.468;2022-08-27T05:31:41;97877.92258722997;;;20.15068284122988;87.56450751506829
71642;BME280;60657;50.122;14.468;2022-08-27T05:34:48;97876.69584860728;;;20.06523231860838;88.11383230334935
71642;BME280;60657;50.122;14.468;2022-08-27T05:37:55;97873.14120207864;;;20.091935606927592;88.11955443656062
71642;BME280;60657;50.122;14.468;2022-08-27T05:41:03;97866.036711432;;;20.027847714961467;88.07377737087053
71642;BME280;60657;50.122;14.468;2022-08-27T05:44:12;97873.82565091275;;;19.977111467154955;88.0642404821851
71642;BME280;60657;50.122;14.468;2022-08-27T05:47:19;97866.44430085963;;;20.158693827725642;88.03562981612879
71642;BME280;60657;50.122;14.468;2022-08-27T05:50:26;97870.80822834789;;;20.268177309834442;87.89448386358434
71642;BME280;60657;50.122;14.468;2022-08-27T05:53:33;97864.66648463429;;;20.164034485389493;87.2536049439231
71642;BME280;60657;50.122;14.468;2022-08-27T05:56:40;97863.02998530639;;;20.019836728465705;88.06042572671092
71642;BME280;60657;50.122;14.468;2022-08-27T05:59:48;97868.28909224666;;;19.966430151827268;88.31219958800641
71642;BME280;60657;50.122;14.468;2022-08-27T06:02:55;97860.22079641628;;;20.23613336385138;87.90783550774395
71642;BME280;60657;50.122;14.468;2022-08-27T06:06:03;97873.61548030609;;;20.222781719691767;88.16533150225071
71642;BME280;60657;50.122;14.468;2022-08-27T06:09:13;97876.61665086815;;;20.27885862516213;87.68657969024186
71642;BME280;60657;50.122;14.468;2022-08-27T06:12:21;97880.64598295618;;;20.270847638666368;87.45578698405433
71642;BME280;60657;50.122;14.468;2022-08-27T06:15:28;97888.16439676589;;;20.337605859464404;87.46150911726558
71642;BME280;60657;50.122;14.468;2022-08-27T06:18:35;97877.97652702499;;;20.34828717479209;87.21927214465553
71642;BME280;60657;50.122;14.468;2022-08-27T06:21:43;97884.0650194828;;;20.326924544136716;87.4882124055848
71642;BME280;60657;50.122;14.468;2022-08-27T06:24:50;97880.03537989466;;;20.257495994506755;87.48249027237354
71642;BME280;60657;50.122;14.468;2022-08-27T06:27:57;97896.09976405815;;;20.270847638666368;87.70756084534982
71642;BME280;60657;50.122;14.468;2022-08-27T06:31:05;97895.14125771227;;;20.23079270618753;87.33752956435492
71642;BME280;60657;50.122;14.468;2022-08-27T06:34:14;97899.57311348988;;;20.43373769741359;87.80102235446708
71642;BME280;60657;50.122;14.468;2022-08-27T06:37:21;97893.48282642842;;;20.423056382085903;87.19638361181049
71642;BME280;60657;50.122;14.468;2022-08-27T06:40:28;97899.50303608344;;;20.43373769741359;87.12581063553826
71642;BME280;60657;50.122;14.468;2022-08-27T06:43:35;97896.22342055921;;;20.39635309376669;87.06668192568857
71642;BME280;60657;50.122;14.468;2022-08-27T06:46:44;97884.46472259871;;;20.436408026245516;87.25741969939727
71642;BME280;60657;50.122;14.468;2022-08-27T06:49:51;97888.49341845521;;;20.43106736858168;87.20019836728466
71642;BME280;60657;50.122;14.468;2022-08-27T06:52:58;97891.37407351134;;;20.39101243610284;87.05142290379187
71642;BME280;60657;50.122;14.468;2022-08-27T06:56:07;97900.04170324728;;;20.54322117952239;86.5898374914168
71642;BME280;60657;50.122;14.468;2022-08-27T06:59:16;97904.07052447338;;;20.532539864194703;86.8263523308156
71642;BME280;60657;50.122;14.468;2022-08-27T07:02:24;97899.1893762641;;;20.703440909437703;86.49065384908828
71642;BME280;60657;50.122;14.468;2022-08-27T07:05:31;97906.42377063383;;;20.73815518425269;86.0614938582437
71642;BME280;60657;50.122;14.468;2022-08-27T07:08:39;97910.06110181067;;;20.735484855420765;86.11299305714503
71642;BME280;60657;50.122;14.468;2022-08-27T07:11:47;97916.93681340097;;;20.877012283512627;86.11490043488213
71642;BME280;60657;50.122;14.468;2022-08-27T07:14:54;97913.65770882877;;;20.874341954680702;85.69909208819715
71642;BME280;60657;50.122;14.468;2022-08-27T07:18:00;97914.86287257473;;;20.941100175478752;85.96231021591515
71642;BME280;60657;50.122;14.468;2022-08-27T07:21:08;97915.00802506295;;;20.930418860151065;85.84596017395285
71642;BME280;60657;50.122;14.468;2022-08-27T07:24:15;97913.94542215345;;;20.716792553597315;85.69909208819715
71642;BME280;60657;50.122;14.468;2022-08-27T07:27:22;97911.3423898193;;;20.786221103227277;86.09582665751125
71642;BME280;60657;50.122;14.468;2022-08-27T07:30:29;97912.18543577485;;;21.01319905394064;85.65522240024414
71642;BME280;60657;50.122;14.468;2022-08-27T07:33:36;97914.2786760597;;;21.106660563057915;85.57129777981231
71642;BME280;60657;50.122;14.468;2022-08-27T07:36:45;97910.48458202927;;;21.24551766231785;85.411078049897
71642;BME280;60657;50.122;14.468;2022-08-27T07:39:51;97908.77150128552;;;21.218814373998626;85.63614862287328
71642;BME280;60657;50.122;14.468;2022-08-27T07:42:58;97900.56660097587;;;21.448462653543913;84.36011291676203
71642;BME280;60657;50.122;14.468;2022-08-27T07:46:05;97901.44113705662;;;21.608682383459225;83.81269550621805
71642;BME280;60657;50.122;14.468;2022-08-27T07:49:12;97911.34844979737;;;21.712825207904174;83.60479133287556
71642;BME280;60657;50.122;14.468;2022-08-27T07:52:19;97904.79999501596;;;21.93713282978561;83.12031738765545
71642;BME280;60657;50.122;14.468;2022-08-27T07:55:26;97902.68824171361;;;21.987869077592123;82.53093766689555
71642;BME280;60657;50.122;14.468;2022-08-27T07:58:33;97907.95911234799;;;22.28427557793546;81.62111848630502
71642;BME280;60657;50.122;14.468;2022-08-27T08:01:40;97909.60305169587;;;22.417792019531547;81.11375600823987
71642;BME280;60657;50.122;14.468;2022-08-27T08:04:47;97914.76008710628;;;22.391088731212335;80.0494392309453
71642;BME280;60657;50.122;14.468;2022-08-27T08:07:58;97911.69657679512;;;22.110704203860536;81.72411688410773
71642;BME280;60657;50.122;14.468;2022-08-27T08:11:05;97904.60932085878;;;22.423132677195397;80.2554360265507
71642;BME280;60657;50.122;14.468;2022-08-27T08:14:12;97907.95911234799;;;22.324330510414285;80.58731975280385
71642;BME280;60657;50.122;14.468;2022-08-27T08:17:19;97916.80396969404;;;22.385748073548484;80.0189211871519
71642;BME280;60657;50.122;14.468;2022-08-27T08:20:26;97917.70823103472;;;22.618066681925683;80.10666056305791
71642;BME280;60657;50.122;14.468;2022-08-27T08:23:33;97911.56715217094;;;22.67147325856412;79.86823834592202
71642;BME280;60657;50.122;14.468;2022-08-27T08:26:41;97917.45462660791;;;22.810330357824057;79.42763408865491
71642;BME280;60657;50.122;14.468;2022-08-27T08:29:48;97925.97252894638;;;22.698176546883346;78.35759517814908
71642;BME280;60657;50.122;14.468;2022-08-27T08:32:57;97923.18473112115;;;22.86640726329442;78.31944762340734
71642;BME280;60657;50.122;14.468;2022-08-27T08:36:05;97925.9583891157;;;22.943846799420157;78.19356069275959
71642;BME280;60657;50.122;14.468;2022-08-27T08:39:17;97923.73311361638;;;23.050659952697032;77.89410238803693
71642;BME280;60657;50.122;14.468;2022-08-27T08:42:27;97925.87461272393;;;22.84237430380712;77.48783093003739
71642;BME280;60657;50.122;14.468;2022-08-27T08:45:40;97925.64053933346;;;22.84771496147097;77.86167696650645
71642;BME280;60657;50.122;14.468;2022-08-27T08:48:50;97929.88342010765;;;22.965209430075532;77.68810559243153
71642;BME280;60657;50.122;14.468;2022-08-27T08:52:11;97927.17559933854;;;23.053330281528957;77.79110399023422
71642;BME280;60657;50.122;14.468;2022-08-27T08:55:31;97925.59568928654;;;23.144121461814294;77.48783093003739
71642;BME280;60657;50.122;14.468;2022-08-27T08:58:48;97929.90844717006;;;23.387121385519194;77.32570382238498
71642;BME280;60657;50.122;14.468;2022-08-27T09:01:58;97927.02391356537;;;23.507286182955667;77.42107270923934
71642;BME280;60657;50.122;14.468;2022-08-27T09:05:07;97919.7323610499;;;23.747615777828642;74.57907988097963
71642;BME280;60657;50.122;14.468;2022-08-27T09:08:16;97937.83425655196;;;23.49660486762798;76.90417334248875
71642;BME280;60657;50.122;14.468;2022-08-27T09:11:35;97937.35947444147;;;23.445868619821468;76.96330205233845
71642;BME280;60657;50.122;14.468;2022-08-27T09:14:52;97934.56088395053;;;23.421835660334168;76.24040588998245
71642;BME280;60657;50.122;14.468;2022-08-27T09:18:06;97937.44513944535;;;23.333714808880757;75.79407949950408
71642;BME280;60657;50.122;14.468;2022-08-27T09:21:17;97945.28566853065;;;23.45922026398108;76.61997405966278
71642;BME280;60657;50.122;14.468;2022-08-27T09:24:36;97940.2422333702;;;23.269626916914632;77.0720225833524
71642;BME280;60657;50.122;14.468;2022-08-27T09:27:57;97935.72270343875;;;23.285648889906156;75.81506065461204
71642;BME280;60657;50.122;14.468;2022-08-27T09:31:08;97941.96440780007;;;23.248264286259257;76.18318455786984
71642;BME280;60657;50.122;14.468;2022-08-27T09:34:19;97937.78689373907;;;23.301670862897694;76.2632944228275
71642;BME280;60657;50.122;14.468;2022-08-27T09:37:30;97934.98995607799;;;23.32570382238498;76.94232089723049
71642;BME280;60657;50.122;14.468;2022-08-27T09:40:40;97943.63065445983;;;23.162813763637757;76.72487983520256
71642;BME280;60657;50.122;14.468;2022-08-27T09:43:55;97938.86073362341;;;23.296330205233843;77.20363164721141
71642;BME280;60657;50.122;14.468;2022-08-27T09:47:04;97935.33158343918;;;23.27496757457847;77.0128938735027
71642;BME280;60657;50.122;14.468;2022-08-27T09:50:20;97935.67176203134;;;23.248264286259257;78.0161745632105
71642;BME280;60657;50.122;14.468;2022-08-27T09:53:30;97927.2325024391;;;23.258945601586944;78.17257953765164
71642;BME280;60657;50.122;14.468;2022-08-27T09:56:46;97929.60264016653;;;23.261615930418856;77.24368657969025
71642;BME280;60657;50.122;14.468;2022-08-27T09:59:55;97930.42105085294;;;23.320363164721144;76.53223468375677
71642;BME280;60657;50.122;14.468;2022-08-27T10:03:02;97925.42549149132;;;23.296330205233843;76.50743877317464
71642;BME280;60657;50.122;14.468;2022-08-27T10:06:13;97922.84640421989;;;23.448538948653393;76.08781567101549
71642;BME280;60657;50.122;14.468;2022-08-27T10:09:21;97927.84220136695;;;23.395132372014956;75.7463950560769
71642;BME280;60657;50.122;14.468;2022-08-27T10:12:38;97937.66190877455;;;23.448538948653393;76.28618295567254
71642;BME280;60657;50.122;14.468;2022-08-27T10:16:01;97926.47846405464;;;23.77698939497978;75.2161440451667
71642;BME280;60657;50.122;14.468;2022-08-27T10:19:27;97926.04963824112;;;23.993286030365454;74.47608148317693
71642;BME280;60657;50.122;14.468;2022-08-27T10:22:50;97927.87296971645;;;24.11345082780194;73.84283207446403
71642;BME280;60657;50.122;14.468;2022-08-27T10:26:14;97932.31188071148;;;24.04669260700389;74.47798886091401
71642;BME280;60657;50.122;14.468;2022-08-27T10:29:31;97926.69301119653;;;24.19356069275959;73.36980239566644
71642;BME280;60657;50.122;14.468;2022-08-27T10:32:51;97926.96475535292;;;24.172198062104215;75.01968413824675
71642;BME280;60657;50.122;14.468;2022-08-27T10:36:11;97917.42552198013;;;24.118791485465778;73.65590905622949
71642;BME280;60657;50.122;14.468;2022-08-27T10:39:35;97919.51426933003;;;24.049362935835816;73.78561074235141
71642;BME280;60657;50.122;14.468;2022-08-27T10:42:56;97916.51402639048;;;24.121461814297703;73.15426871137561
71642;BME280;60657;50.122;14.468;2022-08-27T10:46:25;97914.15473618054;;;24.252307927061878;73.15236133363851
71642;BME280;60657;50.122;14.468;2022-08-27T10:49:51;97913.93456521569;;;24.759670405127025;71.3556115053025
71642;BME280;60657;50.122;14.468;2022-08-27T10:53:09;97903.1609836235;;;25.640878919661247;69.80109864957656
71642;BME280;60657;50.122;14.468;2022-08-27T10:56:29;97897.18889745494;;;25.966659037155722;67.53131914244297
71642;BME280;60657;50.122;14.468;2022-08-27T10:59:45;97907.69466580809;;;25.97199969481956;67.39208056763562
71642;BME280;60657;50.122;14.468;2022-08-27T11:03:04;97913.18197830646;;;25.664911879148548;68.5574883649958
71642;BME280;60657;50.122;14.468;2022-08-27T11:06:19;97911.16251077197;;;25.95330739299611;67.06401159685664
71642;BME280;60657;50.122;14.468;2022-08-27T11:09:35;97910.04323641979;;;26.06279087510491;65.2291142137789
71642;BME280;60657;50.122;14.468;2022-08-27T11:12:51;97908.20797888213;;;26.092164492256046;66.99343862058441
71642;BME280;60657;50.122;14.468;2022-08-27T11:16:04;97903.92308645767;;;25.99603265430686;65.87380788891431
71642;BME280;60657;50.122;14.468;2022-08-27T11:19:22;97902.29018997823;;;25.969329365987633;65.13756008239872
71642;BME280;60657;50.122;14.468;2022-08-27T11:22:39;97901.56522003977;;;25.731670099946598;66.09887846189059
71642;BME280;60657;50.122;14.468;2022-08-27T11:25:54;97891.4731640234;;;26.07080186160067;65.60296025024796
71642;BME280;60657;50.122;14.468;2022-08-27T11:29:05;97892.49490331499;;;26.110856794079496;63.73373006790264